createdAt,value
2022-09-01T00:00:49.065Z,16.70
2022-09-01T00:01:54.217Z,16.70
2022-09-01T00:02:57.830Z,16.70
2022-09-01T00:04:03.722Z,16.70
2022-09-01T00:05:08.762Z,16.60
2022-09-01T00:06:11.743Z,16.60
2022-09-01T00:07:16.677Z,16.60
2022-09-01T00:08:19.270Z,16.60
2022-09-01T00:09:24.631Z,16.50
2022-09-01T00:10:27.092Z,16.50
2022-09-01T00:11:32.014Z,16.50
2022-09-01T00:12:35.270Z,16.50
2022-09-01T00:13:38.755Z,16.50
2022-09-01T00:14:43.251Z,16.50
2022-09-01T00:15:47.009Z,16.50
2022-09-01T00:16:50.188Z,16.40
2022-09-01T00:17:55.527Z,16.40
2022-09-01T00:18:58.461Z,16.40
2022-09-01T00:20:02.249Z,16.40
2022-09-01T00:21:05.132Z,16.40
2022-09-01T00:22:09.638Z,16.40
2022-09-01T00:23:13.587Z,16.30
2022-09-01T00:24:19.834Z,16.30
2022-09-01T00:25:24.784Z,16.30
2022-09-01T00:27:31.950Z,16.30
2022-09-01T00:28:36.431Z,16.30
2022-09-01T00:29:38.913Z,16.20
2022-09-01T00:30:47.109Z,16.20
2022-09-01T00:31:49.840Z,16.20
2022-09-01T00:32:53.810Z,16.20
2022-09-01T00:33:56.591Z,16.20
2022-09-01T00:35:00.301Z,16.10
2022-09-01T00:36:05.529Z,16.20
2022-09-01T00:37:09.378Z,16.10
2022-09-01T00:38:13.244Z,16.10
2022-09-01T00:39:17.500Z,16.10
2022-09-01T00:40:20.448Z,16.10
2022-09-01T00:41:28.161Z,16.10
2022-09-01T00:42:30.888Z,16.10
2022-09-01T00:43:40.970Z,16.10
2022-09-01T00:44:43.349Z,16.00
2022-09-01T00:45:47.137Z,16.00
2022-09-01T00:46:55.486Z,16.00
2022-09-01T00:47:59.312Z,16.00
2022-09-01T00:49:06.412Z,16.00
2022-09-01T00:50:12.660Z,16.00
2022-09-01T00:51:16.003Z,16.00
2022-09-01T00:52:30.560Z,16.00
2022-09-01T00:53:35.966Z,16.00
2022-09-01T00:54:44.932Z,16.00
2022-09-01T00:55:47.505Z,16.00
2022-09-01T00:56:57.939Z,15.90
2022-09-01T00:58:03.646Z,15.90
2022-09-01T00:59:07.580Z,15.90
2022-09-01T01:00:17.361Z,15.90
2022-09-01T01:01:23.472Z,15.90
2022-09-01T01:02:27.337Z,15.90
2022-09-01T01:03:30.431Z,15.90
2022-09-01T01:04:33.963Z,15.90
2022-09-01T01:05:40.982Z,15.90
2022-09-01T01:06:49.743Z,15.90
2022-09-01T01:07:53.317Z,15.80
2022-09-01T01:09:00.430Z,15.80
2022-09-01T01:10:05.251Z,15.80
2022-09-01T01:11:18.056Z,15.80
2022-09-01T01:12:22.166Z,15.80
2022-09-01T01:13:26.172Z,15.80
2022-09-01T01:14:32.039Z,15.80
2022-09-01T01:15:34.731Z,15.70
2022-09-01T01:16:44.203Z,15.70
2022-09-01T01:17:46.774Z,15.70
2022-09-01T01:18:50.891Z,15.70
2022-09-01T01:20:15.035Z,15.70
2022-09-01T01:21:45.410Z,15.70
2022-09-01T01:23:02.955Z,15.70
2022-09-01T01:24:31.983Z,15.70
2022-09-01T01:25:42.030Z,15.60
2022-09-01T01:26:47.543Z,15.60
2022-09-01T01:27:50.614Z,15.60
2022-09-01T01:28:55.726Z,15.60
2022-09-01T01:30:00.618Z,15.60
2022-09-01T01:31:11.972Z,15.60
2022-09-01T01:32:15.030Z,15.60
2022-09-01T01:33:23.656Z,15.60
2022-09-01T01:34:27.313Z,15.60
2022-09-01T01:35:31.908Z,15.50
2022-09-01T01:36:38.547Z,15.50
2022-09-01T01:37:49.207Z,15.50
2022-09-01T01:38:59.456Z,15.50
2022-09-01T01:40:06.068Z,15.50
2022-09-01T01:41:11.053Z,15.50
2022-09-01T01:42:13.739Z,15.50
2022-09-01T01:43:20.050Z,15.50
2022-09-01T01:44:28.440Z,15.40
2022-09-01T01:45:36.629Z,15.40
2022-09-01T01:46:45.521Z,15.40
2022-09-01T01:47:53.507Z,15.40
2022-09-01T01:48:58.890Z,15.40
2022-09-01T01:50:04.312Z,15.40
2022-09-01T01:51:07.628Z,15.40
2022-09-01T01:52:16.311Z,15.40
2022-09-01T01:53:22.062Z,15.40
2022-09-01T01:54:32.436Z,15.30
2022-09-01T01:55:37.723Z,15.30
2022-09-01T01:56:42.924Z,15.30
2022-09-01T01:57:49.893Z,15.30
2022-09-01T01:58:54.768Z,15.30
2022-09-01T01:59:57.689Z,15.30
2022-09-01T02:01:01.822Z,15.30
2022-09-01T02:02:08.657Z,15.30
2022-09-01T02:03:17.306Z,15.30
2022-09-01T02:04:20.860Z,15.30
2022-09-01T02:05:29.470Z,15.20
2022-09-01T02:06:35.003Z,15.20
2022-09-01T02:07:42.471Z,15.20
2022-09-01T02:08:45.089Z,15.20
2022-09-01T02:09:48.717Z,15.20
2022-09-01T02:10:54.795Z,15.20
2022-09-01T02:11:59.891Z,15.20
2022-09-01T02:13:07.337Z,15.20
2022-09-01T02:14:13.422Z,15.20
2022-09-01T02:15:16.687Z,15.20
2022-09-01T02:16:21.107Z,15.20
2022-09-01T02:17:25.200Z,15.20
2022-09-01T02:18:34.346Z,15.20
2022-09-01T02:19:42.233Z,15.20
2022-09-01T02:20:47.719Z,15.20
2022-09-01T02:21:54.398Z,15.20
2022-09-01T02:22:58.003Z,15.20
2022-09-01T02:24:04.543Z,15.20
2022-09-01T02:25:09.239Z,15.20
2022-09-01T02:26:16.859Z,15.20
2022-09-01T02:27:27.011Z,15.10
2022-09-01T02:28:33.010Z,15.20
2022-09-01T02:29:37.146Z,15.10
2022-09-01T02:30:49.351Z,15.10
2022-09-01T02:31:54.889Z,15.10
2022-09-01T02:32:58.477Z,15.10
2022-09-01T02:34:03.867Z,15.10
2022-09-01T02:35:10.153Z,15.10
2022-09-01T02:36:17.310Z,15.10
2022-09-01T02:37:25.431Z,15.10
2022-09-01T02:38:30.101Z,15.10
2022-09-01T02:39:33.960Z,15.10
2022-09-01T02:40:41.279Z,15.10
2022-09-01T02:41:44.567Z,15.10
2022-09-01T02:42:53.129Z,15.00
2022-09-01T02:43:55.718Z,15.00
2022-09-01T02:44:59.954Z,15.00
2022-09-01T02:46:06.342Z,15.00
2022-09-01T02:47:10.204Z,15.00
2022-09-01T02:48:13.168Z,15.00
2022-09-01T02:49:25.506Z,15.00
2022-09-01T02:50:29.228Z,15.00
2022-09-01T02:51:33.411Z,15.00
2022-09-01T02:52:38.105Z,15.00
2022-09-01T02:53:48.069Z,15.00
2022-09-01T02:54:51.529Z,15.00
2022-09-01T02:55:58.949Z,15.00
2022-09-01T02:57:04.080Z,15.00
2022-09-01T02:58:10.992Z,15.00
2022-09-01T02:59:21.796Z,14.90
2022-09-01T03:00:31.528Z,15.00
2022-09-01T03:01:34.758Z,14.90
2022-09-01T03:02:38.338Z,14.90
2022-09-01T03:03:41.433Z,14.90
2022-09-01T03:08:01.937Z,15.00
2022-09-01T03:09:11.329Z,14.90
2022-09-01T03:10:16.479Z,14.90
2022-09-01T03:11:24.673Z,14.90
2022-09-01T03:12:28.120Z,14.90
2022-09-01T03:13:33.013Z,14.90
2022-09-01T03:14:36.839Z,14.90
2022-09-01T03:15:40.096Z,14.90
2022-09-01T03:16:44.091Z,14.80
2022-09-01T03:17:49.053Z,14.80
2022-09-01T03:18:53.166Z,14.80
2022-09-01T03:19:55.730Z,14.80
2022-09-01T03:20:59.245Z,14.80
2022-09-01T03:22:02.006Z,14.80
2022-09-01T03:23:12.822Z,14.80
2022-09-01T03:24:17.950Z,14.80
2022-09-01T03:25:25.110Z,14.80
2022-09-01T03:26:28.569Z,14.80
2022-09-01T03:27:33.529Z,14.80
2022-09-01T03:28:37.778Z,14.80
2022-09-01T03:29:41.358Z,14.80
2022-09-01T03:30:49.083Z,14.80
2022-09-01T03:31:52.913Z,14.70
2022-09-01T03:32:55.719Z,14.70
2022-09-01T03:34:00.632Z,14.70
2022-09-01T03:35:08.733Z,14.70
2022-09-01T03:36:19.117Z,14.70
2022-09-01T03:37:23.319Z,14.70
2022-09-01T03:38:29.902Z,14.70
2022-09-01T03:39:33.489Z,14.70
2022-09-01T03:40:37.483Z,14.70
2022-09-01T03:41:41.367Z,14.70
2022-09-01T03:42:44.500Z,14.70
2022-09-01T03:43:50.077Z,14.60
2022-09-01T03:44:53.473Z,14.60
2022-09-01T03:46:00.555Z,14.60
2022-09-01T03:47:03.709Z,14.60
2022-09-01T03:48:12.779Z,14.60
2022-09-01T03:49:24.932Z,14.60
2022-09-01T03:50:29.036Z,14.60
2022-09-01T03:51:35.003Z,14.60
2022-09-01T03:52:41.171Z,14.60
2022-09-01T03:53:43.983Z,14.60
2022-09-01T03:54:48.021Z,14.60
2022-09-01T03:55:50.647Z,14.60
2022-09-01T03:56:55.060Z,14.60
2022-09-01T03:58:06.585Z,14.60
2022-09-01T03:59:17.321Z,14.60
2022-09-01T04:00:24.140Z,14.60
2022-09-01T04:01:30.787Z,14.60
2022-09-01T04:02:33.449Z,14.60
2022-09-01T04:03:40.405Z,14.60
2022-09-01T04:04:43.084Z,14.60
2022-09-01T04:05:47.013Z,14.60
2022-09-01T04:06:49.942Z,14.60
2022-09-01T04:07:53.986Z,14.60
2022-09-01T04:09:03.150Z,14.60
2022-09-01T04:10:12.524Z,14.60
2022-09-01T04:11:19.010Z,14.60
2022-09-01T04:12:26.112Z,14.60
2022-09-01T04:13:34.148Z,14.60
2022-09-01T04:14:39.556Z,14.60
2022-09-01T04:15:42.172Z,14.60
2022-09-01T04:17:04.676Z,14.60
2022-09-01T04:18:32.954Z,14.60
2022-09-01T04:19:39.467Z,14.50
2022-09-01T04:20:49.528Z,14.50
2022-09-01T04:21:54.966Z,14.50
2022-09-01T04:22:59.888Z,14.50
2022-09-01T04:24:05.254Z,14.50
2022-09-01T04:25:10.862Z,14.50
2022-09-01T04:26:20.584Z,14.50
2022-09-01T04:27:27.068Z,14.50
2022-09-01T04:28:37.205Z,14.50
2022-09-01T04:29:47.060Z,14.50
2022-09-01T04:30:52.180Z,14.50
2022-09-01T04:32:02.159Z,14.50
2022-09-01T04:33:05.926Z,14.50
2022-09-01T04:34:13.323Z,14.50
2022-09-01T04:35:19.024Z,14.50
2022-09-01T04:36:27.519Z,14.50
2022-09-01T04:37:31.155Z,14.50
2022-09-01T04:38:38.610Z,14.50
2022-09-01T04:39:51.320Z,14.50
2022-09-01T04:40:58.425Z,14.40
2022-09-01T04:42:09.193Z,14.40
2022-09-01T04:43:12.799Z,14.40
2022-09-01T04:44:16.899Z,14.40
2022-09-01T04:45:25.360Z,14.40
2022-09-01T04:46:30.814Z,14.40
2022-09-01T04:47:36.342Z,14.40
2022-09-01T04:48:43.317Z,14.40
2022-09-01T04:49:50.849Z,14.40
2022-09-01T04:50:56.454Z,14.40
2022-09-01T04:52:02.129Z,14.40
2022-09-01T04:53:07.242Z,14.40
2022-09-01T04:54:24.326Z,14.40
2022-09-01T04:55:29.925Z,14.40
2022-09-01T04:56:35.533Z,14.40
2022-09-01T04:57:52.393Z,14.40
2022-09-01T04:58:55.847Z,14.30
2022-09-01T04:59:59.890Z,14.30
2022-09-01T05:01:14.247Z,14.30
2022-09-01T05:02:18.614Z,14.30
2022-09-01T05:03:23.923Z,14.30
2022-09-01T05:04:34.983Z,14.30
2022-09-01T05:05:43.044Z,14.30
2022-09-01T05:06:49.284Z,14.40
2022-09-01T05:07:55.729Z,14.40
2022-09-01T05:08:59.936Z,14.40
2022-09-01T05:10:18.624Z,14.40
2022-09-01T05:11:46.317Z,14.40
2022-09-01T05:12:57.284Z,14.40
2022-09-01T05:14:01.370Z,14.40
2022-09-01T05:15:06.452Z,14.40
2022-09-01T05:16:17.288Z,14.40
2022-09-01T05:17:24.591Z,14.40
2022-09-01T05:18:28.965Z,14.40
2022-09-01T05:19:32.039Z,14.50
2022-09-01T05:20:42.150Z,14.50
2022-09-01T05:21:46.681Z,14.50
2022-09-01T05:22:56.549Z,14.50
2022-09-01T05:24:01.508Z,14.50
2022-09-01T05:25:13.172Z,14.60
2022-09-01T05:26:22.127Z,14.60
2022-09-01T05:27:29.141Z,14.60
2022-09-01T05:28:31.980Z,14.60
2022-09-01T05:29:38.563Z,14.60
2022-09-01T05:30:43.231Z,14.70
2022-09-01T05:31:50.298Z,14.70
2022-09-01T05:32:55.113Z,14.70
2022-09-01T05:34:01.922Z,14.80
2022-09-01T05:35:08.505Z,14.90
2022-09-01T05:36:13.707Z,15.10
2022-09-01T05:37:17.212Z,15.30
2022-09-01T05:38:21.259Z,15.50
2022-09-01T05:39:25.101Z,15.70
2022-09-01T05:40:27.866Z,15.90
2022-09-01T05:41:35.827Z,16.10
2022-09-01T05:42:40.587Z,16.40
2022-09-01T05:43:46.484Z,16.60
2022-09-01T05:44:53.144Z,16.80
2022-09-01T05:46:06.714Z,16.90
2022-09-01T05:47:20.854Z,17.00
2022-09-01T05:48:30.938Z,17.10
2022-09-01T05:49:34.440Z,17.20
2022-09-01T05:50:43.440Z,17.30
2022-09-01T05:55:09.207Z,17.50
2022-09-01T05:56:16.966Z,17.50
2022-09-01T05:57:35.852Z,17.40
2022-09-01T06:00:11.276Z,17.40
2022-09-01T06:01:22.390Z,17.30
2022-09-01T06:02:30.932Z,17.30
2022-09-01T06:03:38.333Z,17.30
2022-09-01T06:04:44.344Z,17.20
2022-09-01T06:06:01.465Z,17.20
2022-09-01T06:07:11.896Z,17.20
2022-09-01T06:08:23.887Z,17.20
2022-09-01T06:09:27.061Z,17.10
2022-09-01T06:10:32.232Z,17.10
2022-09-01T06:11:35.438Z,17.10
2022-09-01T06:12:40.687Z,17.20
2022-09-01T06:13:45.036Z,17.20
2022-09-01T06:14:50.393Z,17.20
2022-09-01T06:15:54.016Z,17.20
2022-09-01T06:16:58.215Z,17.30
2022-09-01T06:18:02.144Z,17.30
2022-09-01T06:19:07.680Z,17.40
2022-09-01T06:20:11.989Z,17.40
2022-09-01T06:21:18.412Z,17.40
2022-09-01T06:22:21.269Z,17.40
2022-09-01T06:23:25.399Z,17.50
2022-09-01T06:24:29.106Z,17.50
2022-09-01T06:25:32.756Z,17.50
2022-09-01T06:26:39.014Z,17.60
2022-09-01T06:27:44.969Z,17.60
2022-09-01T06:28:48.331Z,17.70
2022-09-01T06:29:53.750Z,17.70
2022-09-01T06:30:57.360Z,17.80
2022-09-01T06:32:02.402Z,17.80
2022-09-01T06:33:09.383Z,17.90
2022-09-01T06:34:17.143Z,18.10
2022-09-01T06:35:29.632Z,18.30
2022-09-01T06:36:36.758Z,18.70
2022-09-01T06:37:40.491Z,19.10
2022-09-01T06:38:47.073Z,19.50
2022-09-01T06:39:51.783Z,19.90
2022-09-01T06:41:02.218Z,20.30
2022-09-01T06:42:06.766Z,20.70
2022-09-01T06:43:21.908Z,21.10
2022-09-01T06:44:27.381Z,21.60
2022-09-01T06:45:42.999Z,22.00
2022-09-01T06:46:47.667Z,22.40
2022-09-01T06:49:06.066Z,23.00
2022-09-01T06:50:09.755Z,23.40
2022-09-01T06:51:19.270Z,23.70
2022-09-01T06:52:26.081Z,23.90
2022-09-01T06:53:42.885Z,24.20
2022-09-01T06:54:48.856Z,24.50
2022-09-01T06:55:52.937Z,24.80
2022-09-01T06:56:57.801Z,25.10
2022-09-01T06:58:05.801Z,25.30
2022-09-01T06:59:10.413Z,25.60
2022-09-01T07:00:18.865Z,25.90
2022-09-01T07:01:27.656Z,26.10
2022-09-01T07:02:33.845Z,26.30
2022-09-01T07:03:57.611Z,26.50
2022-09-01T07:07:00.449Z,27.00
2022-09-01T07:08:21.943Z,27.20
2022-09-01T07:09:47.723Z,27.50
2022-09-01T07:13:10.651Z,28.10
2022-09-01T07:14:16.182Z,28.30
2022-09-01T07:16:51.957Z,28.60
2022-09-01T07:17:58.387Z,28.80
2022-09-01T07:19:03.914Z,29.00
2022-09-01T07:20:27.574Z,29.10
2022-09-01T07:21:39.449Z,29.30
2022-09-01T07:24:11.200Z,29.80
2022-09-01T07:25:20.697Z,30.00
2022-09-01T07:28:01.462Z,30.40
2022-09-01T07:29:07.854Z,30.60
2022-09-01T07:30:12.088Z,30.80
2022-09-01T07:32:50.554Z,31.20
2022-09-01T07:35:23.840Z,31.60
2022-09-01T07:42:59.309Z,31.90
2022-09-01T07:44:26.764Z,33.40
2022-09-01T07:46:36.697Z,33.70
2022-09-01T07:47:52.451Z,33.90
2022-09-01T07:50:24.620Z,34.30
2022-09-01T07:51:36.376Z,34.50
2022-09-01T07:52:43.259Z,34.80
2022-09-01T07:53:50.684Z,35.00
2022-09-01T07:54:54.536Z,35.10
2022-09-01T07:55:59.487Z,35.30
2022-09-01T07:57:03.254Z,35.50
2022-09-01T07:58:08.842Z,35.70
2022-09-01T07:59:15.590Z,35.80
2022-09-01T08:00:46.351Z,35.90
2022-09-01T08:01:52.622Z,36.10
2022-09-01T08:02:57.319Z,36.30
2022-09-01T08:04:02.978Z,36.40
2022-09-01T08:05:09.967Z,36.50
2022-09-01T08:06:20.675Z,36.60
2022-09-01T08:07:24.964Z,36.80
2022-09-01T08:08:29.548Z,36.90
2022-09-01T08:09:44.002Z,37.00
2022-09-01T08:10:49.535Z,37.10
2022-09-01T08:12:01.736Z,37.20
2022-09-01T08:13:15.176Z,37.30
2022-09-01T08:14:18.398Z,37.50
2022-09-01T08:15:41.293Z,37.70
2022-09-01T08:16:53.902Z,37.80
2022-09-01T08:17:57.134Z,38.00
2022-09-01T08:19:02.909Z,38.10
2022-09-01T08:20:31.341Z,38.30
2022-09-01T08:21:57.194Z,38.50
2022-09-01T08:23:05.462Z,38.60
2022-09-01T08:24:14.325Z,38.80
2022-09-01T08:25:22.936Z,38.90
2022-09-01T08:26:29.632Z,39.00
2022-09-01T08:27:33.566Z,39.10
2022-09-01T08:28:37.633Z,39.10
2022-09-01T08:29:40.654Z,39.20
2022-09-01T08:30:49.053Z,39.30
2022-09-01T08:31:55.283Z,39.40
2022-09-01T08:32:59.250Z,39.50
2022-09-01T08:34:05.478Z,39.50
2022-09-01T08:35:10.613Z,39.60
2022-09-01T08:36:21.542Z,39.70
2022-09-01T08:37:28.513Z,39.70
2022-09-01T08:38:31.287Z,39.80
2022-09-01T08:39:35.131Z,39.90
2022-09-01T08:40:42.467Z,39.90
2022-09-01T08:41:58.624Z,40.00
2022-09-01T08:43:17.976Z,40.20
2022-09-01T08:44:35.172Z,40.30
2022-09-01T08:45:47.782Z,40.50
2022-09-01T08:47:01.347Z,40.60
2022-09-01T08:48:57.239Z,40.80
2022-09-01T08:49:44.218Z,40.90
2022-09-01T08:51:15.036Z,41.10
2022-09-01T08:52:48.554Z,41.20
2022-09-01T08:54:01.508Z,41.30
2022-09-01T08:55:12.215Z,41.40
2022-09-01T08:56:19.185Z,41.50
2022-09-01T08:57:28.584Z,41.50
2022-09-01T08:58:54.171Z,41.60
2022-09-01T09:00:23.360Z,41.70
2022-09-01T09:01:38.651Z,41.80
2022-09-01T09:02:57.202Z,41.90
2022-09-01T09:04:21.539Z,41.90
2022-09-01T09:05:35.972Z,42.10
2022-09-01T09:06:53.555Z,42.20
2022-09-01T09:08:18.447Z,42.40
2022-09-01T09:09:32.298Z,42.50
2022-09-01T09:10:48.012Z,42.70
2022-09-01T09:12:23.211Z,42.80
2022-09-01T09:13:39.612Z,43.00
2022-09-01T09:14:58.488Z,43.20
2022-09-01T09:16:08.857Z,43.40
2022-09-01T09:17:13.364Z,43.50
2022-09-01T09:18:39.131Z,43.60
2022-09-01T09:19:45.031Z,43.60
2022-09-01T09:20:49.237Z,43.60
2022-09-01T09:21:54.986Z,43.70
2022-09-01T09:22:59.849Z,43.60
2022-09-01T09:24:16.579Z,43.70
2022-09-01T09:25:25.263Z,43.70
2022-09-01T09:26:42.208Z,43.70
2022-09-01T09:28:00.470Z,43.70
2022-09-01T09:29:03.825Z,43.70
2022-09-01T09:30:11.888Z,43.70
2022-09-01T09:31:30.436Z,43.70
2022-09-01T09:33:25.060Z,43.70
2022-09-01T09:34:33.292Z,43.80
2022-09-01T09:35:40.392Z,43.90
2022-09-01T09:36:48.037Z,43.90
2022-09-01T09:37:56.510Z,44.00
2022-09-01T09:39:11.838Z,44.00
2022-09-01T09:40:19.096Z,44.10
2022-09-01T09:41:27.174Z,44.20
2022-09-01T09:42:34.846Z,44.20
2022-09-01T09:43:50.392Z,44.30
2022-09-01T09:44:57.656Z,44.30
2022-09-01T09:46:26.911Z,44.30
2022-09-01T09:47:44.162Z,44.40
2022-09-01T09:48:48.306Z,44.50
2022-09-01T09:50:16.341Z,44.60
2022-09-01T09:51:23.712Z,44.60
2022-09-01T09:52:27.198Z,44.60
2022-09-01T09:53:34.152Z,44.50
2022-09-01T09:54:38.881Z,44.40
2022-09-01T09:56:03.824Z,44.30
2022-09-01T09:57:13.725Z,44.20
2022-09-01T09:58:17.412Z,44.20
2022-09-01T09:59:56.598Z,44.20
2022-09-01T10:01:17.415Z,44.20
2022-09-01T10:02:33.616Z,44.20
2022-09-01T10:03:45.946Z,44.30
2022-09-01T10:04:51.483Z,44.20
2022-09-01T10:05:58.959Z,44.20
2022-09-01T10:07:26.676Z,44.10
2022-09-01T10:08:45.491Z,44.00
2022-09-01T10:09:49.862Z,43.90
2022-09-01T10:10:58.153Z,43.90
2022-09-01T10:12:02.960Z,43.80
2022-09-01T10:13:10.373Z,43.80
2022-09-01T10:14:35.539Z,43.80
2022-09-01T10:15:51.739Z,43.80
2022-09-01T10:17:04.466Z,43.90
2022-09-01T10:18:20.567Z,43.90
2022-09-01T10:19:25.234Z,44.00
2022-09-01T10:20:30.207Z,44.10
2022-09-01T10:21:37.351Z,44.10
2022-09-01T10:22:42.101Z,44.10
2022-09-01T10:23:48.504Z,44.00
2022-09-01T10:24:51.593Z,44.00
2022-09-01T10:26:05.934Z,43.90
2022-09-01T10:27:18.626Z,43.80
2022-09-01T10:28:25.082Z,43.70
2022-09-01T10:29:35.112Z,43.60
2022-09-01T10:30:43.250Z,43.40
2022-09-01T10:31:47.362Z,43.30
2022-09-01T10:32:56.898Z,43.10
2022-09-01T10:34:05.488Z,43.10
2022-09-01T10:35:18.371Z,43.00
2022-09-01T10:36:24.401Z,43.00
2022-09-01T10:37:28.245Z,42.90
2022-09-01T10:38:32.351Z,42.80
2022-09-01T10:39:55.341Z,42.70
2022-09-01T10:41:10.078Z,42.70
2022-09-01T10:42:19.401Z,42.60
2022-09-01T10:43:38.420Z,42.60
2022-09-01T10:44:58.507Z,42.60
2022-09-01T10:46:06.061Z,42.60
2022-09-01T10:47:30.184Z,42.60
2022-09-01T10:48:46.620Z,42.60
2022-09-01T10:50:24.481Z,42.60
2022-09-01T10:51:56.660Z,42.60
2022-09-01T10:53:07.655Z,42.50
2022-09-01T10:54:39.281Z,42.40
2022-09-01T10:56:01.973Z,42.30
2022-09-01T10:57:12.223Z,42.20
2022-09-01T11:01:40.330Z,42.00
2022-09-01T11:02:29.547Z,41.90
2022-09-01T11:03:56.387Z,41.90
2022-09-01T11:05:18.951Z,41.80
2022-09-01T11:07:13.323Z,41.80
2022-09-01T11:08:24.333Z,41.70
2022-09-01T11:09:32.468Z,41.50
2022-09-01T11:10:49.301Z,41.50
2022-09-01T11:12:38.597Z,41.50
2022-09-01T11:13:49.965Z,41.40
2022-09-01T11:14:55.580Z,41.40
2022-09-01T11:16:49.302Z,41.40
2022-09-01T11:17:59.837Z,41.40
2022-09-01T11:19:41.400Z,41.40
2022-09-01T11:20:46.294Z,41.50
2022-09-01T11:22:02.904Z,41.50
2022-09-01T11:23:12.410Z,41.50
2022-09-01T11:25:11.670Z,41.40
2022-09-01T11:26:49.106Z,41.40
2022-09-01T11:28:10.834Z,41.20
2022-09-01T11:29:55.791Z,41.10
2022-09-01T11:31:02.541Z,41.00
2022-09-01T11:32:07.216Z,41.00
2022-09-01T11:33:39.065Z,40.90
2022-09-01T11:34:45.677Z,40.90
2022-09-01T11:35:57.437Z,40.80
2022-09-01T11:37:02.819Z,40.70
2022-09-01T11:38:07.903Z,40.60
2022-09-01T11:39:36.060Z,40.50
2022-09-01T11:40:39.000Z,40.40
2022-09-01T11:41:57.583Z,40.40
2022-09-01T11:43:12.584Z,40.30
2022-09-01T11:44:24.640Z,40.30
2022-09-01T11:45:33.003Z,40.20
2022-09-01T11:46:36.958Z,40.10
2022-09-01T11:47:50.482Z,40.10
2022-09-01T11:48:57.367Z,40.00
2022-09-01T11:50:04.344Z,39.90
2022-09-01T11:51:07.291Z,39.80
2022-09-01T11:52:27.154Z,39.80
2022-09-01T11:53:30.432Z,39.60
2022-09-01T11:54:42.819Z,39.50
2022-09-01T11:55:49.224Z,39.40
2022-09-01T11:56:52.673Z,39.20
2022-09-01T11:57:57.157Z,39.10
2022-09-01T11:59:00.891Z,39.00
2022-09-01T12:00:10.900Z,38.90
2022-09-01T12:01:18.130Z,38.80
2022-09-01T12:02:25.520Z,38.70
2022-09-01T12:03:31.909Z,38.60
2022-09-01T12:04:38.058Z,38.50
2022-09-01T12:05:42.234Z,38.50
2022-09-01T12:06:55.647Z,38.50
2022-09-01T12:08:00.945Z,38.50
2022-09-01T12:09:05.368Z,38.50
2022-09-01T12:10:21.992Z,38.50
2022-09-01T12:11:30.582Z,38.50
2022-09-01T12:12:35.514Z,38.50
2022-09-01T12:13:41.634Z,38.50
2022-09-01T12:15:05.173Z,38.50
2022-09-01T12:16:18.417Z,38.50
2022-09-01T12:17:21.702Z,38.50
2022-09-01T12:18:28.919Z,38.50
2022-09-01T12:19:38.579Z,38.50
2022-09-01T12:20:43.145Z,38.50
2022-09-01T12:22:00.713Z,38.50
2022-09-01T12:23:04.772Z,38.50
2022-09-01T12:24:18.580Z,38.60
2022-09-01T12:25:25.777Z,38.60
2022-09-01T12:26:31.961Z,38.50
2022-09-01T12:27:36.697Z,38.50
2022-09-01T12:28:42.228Z,38.40
2022-09-01T12:29:46.168Z,38.40
2022-09-01T12:30:50.082Z,38.30
2022-09-01T12:31:54.437Z,38.30
2022-09-01T12:34:29.870Z,38.10
2022-09-01T12:35:34.290Z,38.00
2022-09-01T12:36:38.747Z,37.90
2022-09-01T12:37:41.588Z,37.90
2022-09-01T12:38:45.356Z,37.80
2022-09-01T12:39:51.573Z,37.70
2022-09-01T12:40:57.054Z,37.60
2022-09-01T12:42:12.074Z,37.50
2022-09-01T12:43:36.885Z,37.40
2022-09-01T12:44:51.489Z,37.40
2022-09-01T12:45:54.425Z,37.30
2022-09-01T12:47:00.614Z,37.30
2022-09-01T12:48:06.554Z,37.30
2022-09-01T12:49:20.077Z,37.30
2022-09-01T12:50:53.726Z,37.30
2022-09-01T12:52:26.251Z,37.20
2022-09-01T12:53:36.633Z,37.20
2022-09-01T12:54:39.978Z,37.20
2022-09-01T12:56:20.956Z,37.20
2022-09-01T12:57:29.220Z,37.20
2022-09-01T12:58:33.862Z,37.20
2022-09-01T12:59:37.785Z,37.10
2022-09-01T13:00:58.872Z,37.10
2022-09-01T13:02:34.835Z,37.00
2022-09-01T13:03:38.667Z,36.90
2022-09-01T13:04:42.098Z,36.80
2022-09-01T13:05:51.054Z,36.70
2022-09-01T13:07:04.216Z,36.60
2022-09-01T13:08:09.636Z,36.50
2022-09-01T13:09:13.386Z,36.40
2022-09-01T13:10:16.251Z,36.30
2022-09-01T13:11:21.824Z,36.20
2022-09-01T13:12:24.463Z,36.10
2022-09-01T13:13:29.909Z,35.90
2022-09-01T13:14:32.631Z,35.80
2022-09-01T13:15:38.257Z,35.60
2022-09-01T13:16:42.686Z,35.50
2022-09-01T13:17:45.412Z,35.50
2022-09-01T13:20:13.297Z,35.40
2022-09-01T13:21:16.162Z,35.40
2022-09-01T13:22:21.767Z,35.40
2022-09-01T13:23:25.131Z,35.50
2022-09-01T13:24:31.616Z,35.50
2022-09-01T13:25:35.735Z,35.50
2022-09-01T13:26:39.515Z,35.40
2022-09-01T13:27:44.341Z,35.30
2022-09-01T13:28:48.166Z,35.20
2022-09-01T13:29:51.465Z,35.10
2022-09-01T13:32:25.000Z,35.00
2022-09-01T13:33:29.272Z,34.90
2022-09-01T13:34:33.194Z,34.80
2022-09-01T13:35:37.066Z,34.80
2022-09-01T13:36:45.469Z,34.80
2022-09-01T13:37:55.342Z,34.80
2022-09-01T13:38:58.066Z,34.80
2022-09-01T13:40:02.197Z,34.80
2022-09-01T13:41:04.929Z,34.80
2022-09-01T13:42:09.094Z,34.80
2022-09-01T13:43:13.002Z,34.80
2022-09-01T13:44:17.256Z,34.70
2022-09-01T13:45:24.974Z,34.70
2022-09-01T13:46:27.592Z,34.70
2022-09-01T13:47:31.181Z,34.60
2022-09-01T13:50:11.050Z,34.60
2022-09-01T13:51:18.219Z,34.60
2022-09-01T13:52:21.831Z,34.50
2022-09-01T13:53:26.841Z,34.50
2022-09-01T13:54:29.497Z,34.50
2022-09-01T13:55:36.085Z,34.50
2022-09-01T13:56:40.365Z,34.40
2022-09-01T13:57:44.079Z,34.40
2022-09-01T13:58:48.441Z,34.30
2022-09-01T13:59:53.018Z,34.30
2022-09-01T14:01:00.162Z,34.20
2022-09-01T14:02:03.725Z,34.10
2022-09-01T14:03:12.879Z,34.00
2022-09-01T14:04:15.618Z,34.00
2022-09-01T14:05:21.791Z,33.90
2022-09-01T14:06:24.561Z,33.90
2022-09-01T14:07:28.702Z,33.80
2022-09-01T14:08:36.055Z,33.80
2022-09-01T14:09:38.787Z,33.80
2022-09-01T14:10:50.913Z,33.80
2022-09-01T14:11:55.373Z,33.80
2022-09-01T14:12:58.180Z,33.80
2022-09-01T14:14:01.706Z,33.80
2022-09-01T14:15:13.724Z,33.80
2022-09-01T14:16:20.204Z,33.80
2022-09-01T14:17:23.044Z,33.80
2022-09-01T14:18:36.806Z,33.80
2022-09-01T14:19:39.518Z,33.80
2022-09-01T14:20:46.484Z,33.80
2022-09-01T14:21:49.938Z,33.80
2022-09-01T14:22:54.794Z,33.80
2022-09-01T14:24:00.258Z,33.80
2022-09-01T14:25:03.311Z,33.80
2022-09-01T14:26:12.689Z,33.70
2022-09-01T14:27:15.393Z,33.70
2022-09-01T14:28:24.498Z,33.60
2022-09-01T14:29:27.745Z,33.40
2022-09-01T14:30:33.559Z,33.30
2022-09-01T14:31:37.838Z,33.20
2022-09-01T14:32:41.082Z,33.10
2022-09-01T14:33:45.998Z,33.00
2022-09-01T14:34:50.831Z,32.80
2022-09-01T14:35:55.394Z,32.70
2022-09-01T14:36:58.089Z,32.60
2022-09-01T14:38:05.212Z,32.50
2022-09-01T14:39:10.246Z,32.40
2022-09-01T14:40:16.811Z,32.30
2022-09-01T14:41:26.929Z,32.20
2022-09-01T14:42:30.822Z,32.10
2022-09-01T14:43:34.396Z,32.00
2022-09-01T14:44:38.221Z,31.90
2022-09-01T14:45:44.572Z,31.80
2022-09-01T14:46:49.963Z,31.70
2022-09-01T14:47:58.686Z,31.60
2022-09-01T14:49:03.158Z,31.50
2022-09-01T14:51:25.544Z,31.30
2022-09-01T14:52:28.607Z,31.20
2022-09-01T14:53:33.302Z,31.10
2022-09-01T14:54:39.737Z,31.00
2022-09-01T14:55:44.301Z,30.90
2022-09-01T14:58:12.757Z,30.70
2022-09-01T14:59:15.751Z,30.60
2022-09-01T15:00:20.250Z,30.50
2022-09-01T15:01:34.196Z,30.40
2022-09-01T15:02:37.866Z,30.40
2022-09-01T15:03:41.986Z,30.30
2022-09-01T15:04:45.019Z,30.20
2022-09-01T15:05:48.848Z,30.10
2022-09-01T15:06:51.790Z,30.10
2022-09-01T15:07:55.930Z,30.00
2022-09-01T15:08:59.901Z,30.00
2022-09-01T15:10:07.278Z,29.90
2022-09-01T15:11:11.617Z,29.90
2022-09-01T15:12:15.223Z,29.80
2022-09-01T15:13:18.984Z,29.80
2022-09-01T15:14:21.618Z,29.80
2022-09-01T15:15:26.438Z,29.70
2022-09-01T15:16:35.577Z,29.70
2022-09-01T15:17:42.255Z,29.70
2022-09-01T15:18:51.503Z,29.70
2022-09-01T15:19:55.119Z,29.70
2022-09-01T15:20:58.767Z,29.70
2022-09-01T15:22:01.318Z,29.70
2022-09-01T15:23:07.963Z,29.70
2022-09-01T15:24:12.249Z,29.70
2022-09-01T15:25:17.307Z,29.60